Time;durP1;ratioP1;P1;durP2;ratioP2;P2;SDS_P1;SDS_P2;PMS_P1;PMS_P2;Temp;Humidity;BMP_temperature;BMP_pressure;BME280_temperature;BME280_humidity;BME280_pressure;Samples;Min_cycle;Max_cycle;Signal;HPM_P1;HPM_P2
2021/01/16 00:01:23;;;;;;;4.80;1.67;;;24.40;66.60;;;;;;6148707;23;20077;-70
2021/01/16 00:04:29;;;;;;;8.70;2.42;;;24.40;66.60;;;;;;6148624;23;20501;-71
2021/01/16 00:07:15;;;;;;;;;;;24.40;66.60;;;;;;6150352;23;20002;-70
2021/01/16 00:10:21;;;;;;;11.70;2.20;;;24.40;66.70;;;;;;6148712;23;19904;-74
2021/01/16 00:13:07;;;;;;;;;;;24.30;66.70;;;;;;6148975;23;20009;-74
2021/01/16 00:16:14;;;;;;;9.02;2.53;;;24.40;66.80;;;;;;6149444;23;19900;-70
2021/01/16 00:19:20;;;;;;;7.55;2.78;;;24.40;66.90;;;;;;6149381;23;20002;-71
2021/01/16 00:22:05;;;;;;;;;;;24.40;67.00;;;;;;6148873;23;20094;-69
2021/01/16 00:25:11;;;;;;;7.30;1.98;;;24.40;67.00;;;;;;6149553;23;19900;-72
2021/01/16 00:27:58;;;;;;;;;;;24.40;67.00;;;;;;6149570;23;19998;-70
2021/01/16 00:30:44;;;;;;;;;;;24.30;67.00;;;;;;6151007;23;19901;-71
2021/01/16 00:34:02;;;;;;;5.10;1.73;;;24.30;67.00;;;;;;6151327;23;19908;-70
2021/01/16 00:37:08;;;;;;;8.93;2.15;;;24.30;67.00;;;;;;6151339;23;20005;-70
2021/01/16 00:40:14;;;;;;;7.53;2.35;;;24.30;67.10;;;;;;6150385;23;20077;-70
2021/01/16 00:43:26;;;;;;;6.00;2.53;;;24.30;67.20;;;;;;6150962;23;20329;-70
2021/01/16 00:46:32;;;;;;;6.32;2.22;;;24.30;67.20;;;;;;6151776;23;20044;-71
2021/01/16 00:49:38;;;;;;;9.63;3.15;;;24.30;67.40;;;;;;6147272;23;20454;-70
2021/01/16 00:52:44;;;;;;;9.18;4.32;;;24.20;67.40;;;;;;6149694;23;20012;-70
2021/01/16 00:55:32;;;;;;;5.30;2.10;;;24.20;67.50;;;;;;6151345;23;20009;-75
2021/01/16 00:58:06;;;;;;;13.90;3.05;;;24.20;67.70;;;;;;6149431;23;20377;-72
2021/01/16 01:00:33;;;;;;;7.38;3.03;;;24.20;67.80;;;;;;6149008;23;19994;-72
2021/01/16 01:02:59;;;;;;;10.23;3.08;;;24.20;67.90;;;;;;6151379;23;20429;-72
2021/01/16 01:05:26;;;;;;;13.13;4.20;;;24.20;68.00;;;;;;6149648;23;20006;-73
2021/01/16 01:07:53;;;;;;;6.75;2.40;;;24.20;68.00;;;;;;6151411;23;20006;-71
2021/01/16 01:10:30;;;;;;;10.27;2.88;;;24.20;68.10;;;;;;6148865;23;20001;-72
2021/01/16 01:12:57;;;;;;;8.23;3.05;;;24.20;68.10;;;;;;6150756;23;20013;-75
2021/01/16 01:15:24;;;;;;;9.00;3.25;;;24.20;68.10;;;;;;6152016;23;20106;-71
2021/01/16 01:17:54;;;;;;;5.90;2.67;;;24.20;68.10;;;;;;6150321;23;20156;-72
2021/01/16 01:20:22;;;;;;;13.30;3.17;;;24.20;68.20;;;;;;6151786;23;19997;-72
2021/01/16 01:22:49;;;;;;;9.32;2.60;;;24.20;68.10;;;;;;6149966;23;20006;-72
2021/01/16 01:25:16;;;;;;;10.65;3.22;;;24.20;68.10;;;;;;6152304;23;20001;-74
2021/01/16 01:28:03;;;;;;;10.13;3.15;;;24.20;68.10;;;;;;6150487;23;20005;-72
2021/01/16 01:30:31;;;;;;;9.05;2.78;;;24.20;68.00;;;;;;6149512;23;20001;-72
2021/01/16 01:32:59;;;;;;;9.68;3.20;;;24.20;68.10;;;;;;6151655;23;20422;-72
2021/01/16 01:35:26;;;;;;;10.05;2.88;;;24.20;68.10;;;;;;6150801;23;20101;-75
2021/01/16 01:37:55;;;;;;;10.15;3.22;;;24.10;68.10;;;;;;6151674;23;20009;-71
2021/01/16 01:40:24;;;;;;;20.08;3.75;;;24.20;68.80;;;;;;6149338;23;20001;-73
2021/01/16 01:42:52;;;;;;;7.72;2.42;;;24.10;68.10;;;;;;6150880;23;20025;-72
2021/01/16 01:45:19;;;;;;;7.82;1.92;;;24.10;68.80;;;;;;6150936;23;20041;-72
2021/01/16 01:47:47;;;;;;;9.77;2.42;;;24.10;68.10;;;;;;6150770;23;19998;-75
2021/01/16 01:50:17;;;;;;;7.10;2.83;;;24.10;68.10;;;;;;6151637;23;20001;-72
2021/01/16 01:52:44;;;;;;;9.15;2.63;;;24.10;68.00;;;;;;6150107;23;20455;-72
2021/01/16 01:55:12;;;;;;;11.02;3.03;;;24.10;68.10;;;;;;6150182;23;20033;-72
2021/01/16 01:57:49;;;;;;;6.65;2.50;;;24.10;68.00;;;;;;6149771;23;20036;-72
2021/01/16 02:00:16;;;;;;;7.32;2.92;;;24.10;68.10;;;;;;6151140;23;20001;-72
2021/01/16 02:02:44;;;;;;;13.50;2.63;;;24.10;68.10;;;;;;6151043;23;20076;-74
2021/01/16 02:05:12;;;;;;;9.68;3.45;;;24.10;68.10;;;;;;6149664;23;20004;-73
2021/01/16 05:21:45;;;;;;;9.90;5.90;;;23.80;72.40;;;;;;6085606;22;3634021;-73
2021/01/16 05:24:15;;;;;;;7.95;2.70;;;23.80;72.40;;;;;;6242153;23;20339;-72
2021/01/16 05:27:05;;;;;;;4.15;2.35;;;23.80;72.40;;;;;;6241829;23;20079;-73
2021/01/16 05:29:36;;;;;;;11.07;2.92;;;23.80;72.30;;;;;;6242258;23;20091;-72
2021/01/16 05:32:05;;;;;;;9.27;2.13;;;23.80;72.20;;;;;;6241037;23;20313;-73
2021/01/16 05:34:33;;;;;;;5.55;1.83;;;23.80;72.10;;;;;;6242753;23;20095;-73
2021/01/16 05:37:00;;;;;;;9.57;2.40;;;23.80;72.00;;;;;;6242363;23;20083;-72
2021/01/16 05:39:31;;;;;;;5.05;2.50;;;23.80;72.00;;;;;;6242078;23;20430;-74
2021/01/16 05:42:04;;;;;;;9.52;3.80;;;23.80;71.80;;;;;;6216041;23;20004;-73
2021/01/16 05:44:33;;;;;;;16.50;10.60;;;23.80;71.80;;;;;;6241147;23;20034;-72
2021/01/16 05:47:39;;;;;;;14.80;9.55;;;23.80;71.70;;;;;;6236717;23;19996;-76
2021/01/16 05:50:25;;;;;;;;;;;23.90;71.50;;;;;;6213706;23;20118;-72
2021/01/16 05:53:31;;;;;;;11.60;5.25;;;23.90;71.50;;;;;;6240812;23;19923;-73
2021/01/16 05:56:37;;;;;;;14.40;3.95;;;23.90;71.40;;;;;;6241637;23;20364;-78
2021/01/16 05:59:43;;;;;;;7.93;2.10;;;23.90;71.60;;;;;;6242237;23;20331;-78
2021/01/16 06:02:49;;;;;;;9.45;2.50;;;23.90;71.80;;;;;;6239944;23;20512;-75
2021/01/16 06:05:55;;;;;;;11.52;2.55;;;23.90;71.80;;;;;;6241683;23;20458;-72
2021/01/16 06:08:41;;;;;;;;;;;24.00;71.70;;;;;;6243393;23;19993;-81
2021/01/16 06:11:47;;;;;;;11.55;3.28;;;24.00;71.60;;;;;;6240464;23;19919;-77
2021/01/16 06:14:33;;;;;;;;;;;24.00;71.50;;;;;;6240356;23;20410;-83
2021/01/16 06:17:39;;;;;;;8.82;2.75;;;24.00;71.40;;;;;;6240829;23;19899;-80
2021/01/16 06:20:45;;;;;;;15.38;3.58;;;24.00;71.30;;;;;;6241504;23;20042;-81
2021/01/16 06:23:32;;;;;;;;;;;24.00;71.30;;;;;;6242029;23;20497;-79
2021/01/16 06:26:38;;;;;;;14.13;3.40;;;24.00;71.50;;;;;;6242738;23;19899;-80
2021/01/16 06:29:25;;;;;;;;;;;24.00;71.50;;;;;;6242821;23;20012;-84
2021/01/16 06:32:31;;;;;;;10.60;3.45;;;23.90;71.50;;;;;;6236312;23;19983;-83
2021/01/16 06:35:20;;;;;;;;;;;23.90;71.40;;;;;;6244768;23;20323;-85
2021/01/16 06:38:26;;;;;;;6.28;2.67;;;23.90;71.50;;;;;;6239391;23;19925;-78
2021/01/16 06:41:32;;;;;;;8.60;2.45;;;23.80;71.60;;;;;;6242236;23;20001;-85
2021/01/16 06:44:38;;;;;;;3.95;3.15;;;23.80;71.80;;;;;;6242880;23;20004;-86
2021/01/16 06:47:24;;;;;;;;;;;23.80;72.00;;;;;;6244508;23;20083;-86
2021/01/16 06:50:30;;;;;;;10.30;3.25;;;23.80;72.20;;;;;;6242502;23;19907;-86
2021/01/16 06:53:45;;;;;;;8.30;2.60;;;23.80;72.20;;;;;;6243281;23;20323;-84
2021/01/16 06:56:51;;;;;;;7.18;2.50;;;23.80;73.00;;;;;;6243271;23;20720;-74
2021/01/16 06:59:40;;;;;;;5.15;2.80;;;23.80;72.40;;;;;;6241673;23;20015;-78
2021/01/16 07:02:45;;;;;;;8.82;2.70;;;23.90;72.50;;;;;;6215357;23;20002;-82
2021/01/16 07:05:17;;;;;;;7.03;2.40;;;23.90;72.60;;;;;;6242479;23;20054;-84
2021/01/16 07:08:23;;;;;;;8.30;2.53;;;23.90;72.50;;;;;;6243045;23;20004;-75
2021/01/16 07:11:09;;;;;;;;;;;23.90;72.40;;;;;;6242308;23;20027;-85
2021/01/16 07:14:15;;;;;;;5.88;2.20;;;23.90;72.30;;;;;;6241835;23;19911;-84
2021/01/16 07:17:01;;;;;;;;;;;23.90;72.10;;;;;;6215840;23;20008;-84
2021/01/16 07:20:07;;;;;;;3.90;2.28;;;23.90;72.40;;;;;;6240942;23;19899;-82
2021/01/16 07:23:13;;;;;;;6.80;1.65;;;23.90;71.20;;;;;;6242519;23;20012;-80
2021/01/16 07:25:59;;;;;;;;;;;24.00;70.80;;;;;;6243236;23;20004;-84
2021/01/16 07:29:06;;;;;;;5.07;1.98;;;23.90;70.40;;;;;;6241269;23;19903;-77
2021/01/16 07:31:54;;;;;;;2.90;1.65;;;23.90;70.30;;;;;;6241158;23;20011;-80
2021/01/16 07:35:03;;;;;;;4.60;2.13;;;24.00;70.20;;;;;;6214490;23;20039;-82
2021/01/16 07:38:09;;;;;;;4.53;1.42;;;24.00;70.10;;;;;;6239858;23;19996;-83
2021/01/16 07:41:15;;;;;;;5.05;2.17;;;24.00;70.00;;;;;;6241221;23;20038;-82
2021/01/16 07:44:04;;;;;;;;;;;24.00;70.00;;;;;;6242673;23;20008;-83
2021/01/16 07:47:10;;;;;;;4.13;1.60;;;24.00;70.00;;;;;;6240370;23;19904;-84
2021/01/16 07:50:16;;;;;;;6.25;2.40;;;24.00;70.10;;;;;;6240405;23;20016;-83
2021/01/16 07:53:02;;;;;;;;;;;24.00;70.20;;;;;;6215810;23;20019;-82
2021/01/16 07:55:38;;;;;;;8.95;2.80;;;24.00;70.30;;;;;;6240468;23;20317;-82
2021/01/16 07:58:25;;;;;;;4.68;2.08;;;24.00;70.40;;;;;;6241001;23;20020;-83
2021/01/16 08:01:16;;;;;;;7.68;2.33;;;24.10;70.40;;;;;;6241132;23;20007;-78
2021/01/16 08:03:45;;;;;;;5.55;1.80;;;24.10;70.30;;;;;;6240217;23;20000;-83
2021/01/16 08:06:32;;;;;;;5.05;2.20;;;24.10;70.30;;;;;;6241708;23;20002;-79
2021/01/16 08:09:36;;;;;;;3.47;1.77;;;24.10;70.40;;;;;;6240587;23;20012;-83
2021/01/16 08:12:42;;;;;;;3.15;1.88;;;24.10;70.40;;;;;;6238598;23;20008;-83
2021/01/16 08:15:29;;;;;;;;;;;24.10;70.30;;;;;;6214053;23;20472;-81
2021/01/16 08:18:38;;;;;;;4.32;2.80;;;24.00;70.10;;;;;;6240782;23;19904;-82
2021/01/16 08:21:48;;;;;;;2.35;1.85;;;24.00;70.00;;;;;;6239945;23;20419;-81
2021/01/16 08:24:54;;;;;;;2.55;1.63;;;24.00;69.70;;;;;;6240236;23;20044;-82
2021/01/16 08:28:00;;;;;;;5.32;2.17;;;24.00;69.50;;;;;;6241731;23;20091;-82
2021/01/16 08:31:06;;;;;;;4.13;2.10;;;24.10;69.30;;;;;;6212445;23;20452;-82
2021/01/16 08:34:12;;;;;;;2.50;1.80;;;24.10;69.10;;;;;;6240183;23;20022;-83
2021/01/16 08:36:58;;;;;;;;;;;24.10;68.90;;;;;;6214195;23;20005;-74
2021/01/16 08:40:04;;;;;;;3.83;1.83;;;24.10;68.60;;;;;;6241282;23;19899;-75
2021/01/16 08:42:50;;;;;;;;;;;24.10;68.20;;;;;;6241086;23;20000;-74
2021/01/16 08:45:56;;;;;;;3.20;1.88;;;24.10;68.00;;;;;;6240624;23;20582;-75
2021/01/16 08:49:02;;;;;;;3.60;1.50;;;24.20;67.90;;;;;;6240603;23;20006;-82
2021/01/16 08:52:11;;;;;;;15.00;2.47;;;24.20;67.90;;;;;;6238551;23;20319;-82
2021/01/16 08:55:18;;;;;;;2.75;1.35;;;24.20;67.80;;;;;;6239782;23;20011;-82
2021/01/16 08:58:27;;;;;;;4.93;1.60;;;24.20;67.80;;;;;;6244108;23;20530;-82
2021/01/16 09:01:33;;;;;;;2.90;1.48;;;24.20;68.00;;;;;;6243212;23;19996;-81
2021/01/16 09:04:37;;;;;;;;;;;24.20;68.10;;;;;;6242372;23;20035;-81
2021/01/16 09:07:53;;;;;;;4.55;1.40;;;24.20;68.00;;;;;;6119802;23;20590;-82
2021/01/16 09:11:05;;;;;;;4.43;1.58;;;24.20;68.10;;;;;;6118426;23;20500;-81
2021/01/16 09:14:11;;;;;;;3.67;1.70;;;24.20;67.90;;;;;;6241933;23;20604;-82
2021/01/16 09:16:57;;;;;;;;;;;24.30;67.80;;;;;;6242226;23;19996;-76
2021/01/16 09:20:12;;;;;;;3.85;1.70;;;24.30;67.30;;;;;;6243442;23;19906;-81
2021/01/16 09:23:18;;;;;;;3.20;1.33;;;24.30;67.00;;;;;;6244606;23;20020;-86
2021/01/16 09:26:04;;;;;;;;;;;24.40;66.80;;;;;;6243042;23;20003;-89
2021/01/16 09:29:12;;;;;;;15.75;11.15;;;24.40;66.50;;;;;;6242283;23;19904;-83
2021/01/16 09:32:21;;;;;;;8.00;6.68;;;24.50;66.20;;;;;;6242594;23;20036;-79
2021/01/16 09:35:27;;;;;;;8.93;4.30;;;24.50;65.80;;;;;;6236230;23;20419;-79
2021/01/16 09:38:33;;;;;;;3.70;2.53;;;24.50;65.80;;;;;;6242115;23;20000;-85
2021/01/16 09:41:19;;;;;;;;;;;24.60;64.90;;;;;;6242592;23;20015;-79
2021/01/16 09:44:26;;;;;;;2.63;1.63;;;24.60;64.40;;;;;;6242212;23;20642;-84
2021/01/16 09:47:27;;;;;;;3.90;2.00;;;24.60;64.10;;;;;;6241665;23;20434;-80
2021/01/16 09:50:33;;;;;;;3.75;1.10;;;24.70;63.50;;;;;;6242324;23;20015;-79
2021/01/16 09:53:39;;;;;;;2.67;1.85;;;24.70;63.10;;;;;;6241193;23;20011;-79
2021/01/16 09:56:25;;;;;;;;;;;24.70;62.80;;;;;;6241397;23;20050;-80
2021/01/16 09:59:31;;;;;;;4.05;2.60;;;24.80;63.00;;;;;;6215339;23;19911;-81
2021/01/16 10:02:44;;;;;;;4.47;2.17;;;24.90;62.40;;;;;;6240955;23;20005;-80
2021/01/16 10:05:50;;;;;;;3.53;1.60;;;25.00;62.10;;;;;;6240579;23;20058;-80
2021/01/16 10:09:02;;;;;;;1.65;1.30;;;25.10;61.90;;;;;;6240928;23;20403;-80
2021/01/16 12:39:22;;;;;;;7.45;1.60;;;27.40;56.50;;;;;;5071958;27;20469;-77
2021/01/16 12:41:56;;;;;;;3.13;1.33;;;27.90;55.00;;;;;;5061835;28;20037;-73
2021/01/16 12:45:03;;;;;;;3.30;1.40;;;27.90;54.90;;;;;;5059435;28;20021;-74
2021/01/16 12:48:12;;;;;;;3.33;1.67;;;27.90;55.00;;;;;;5060516;28;20082;-76
2021/01/16 12:51:18;;;;;;;5.40;1.20;;;28.00;55.30;;;;;;5063346;28;20739;-76
2021/01/16 12:54:24;;;;;;;5.07;1.40;;;27.90;55.40;;;;;;5061332;28;20052;-76
2021/01/16 12:57:30;;;;;;;8.63;5.82;;;27.90;55.60;;;;;;5061177;28;20048;-74
2021/01/16 13:00:02;;;;;;;7.72;3.80;;;28.00;55.90;;;;;;5063008;28;20589;-75
2021/01/16 13:02:30;;;;;;;6.50;3.28;;;28.00;56.40;;;;;;5042050;28;20048;-76
2021/01/16 13:21:38;;;;;;;4.70;2.25;;;28.00;56.60;;;;;;5268758;23;20107;-73
2021/01/16 13:24:05;;;;;;;7.85;2.33;;;27.90;56.60;;;;;;5036168;28;20021;-73
2021/01/16 13:26:40;;;;;;;4.07;1.73;;;27.90;56.60;;;;;;5040200;28;20491;-74
2021/01/16 13:29:53;;;;;;;3.13;1.85;;;28.00;56.60;;;;;;5039032;28;20017;-73
2021/01/16 13:32:23;;;;;;;7.43;1.42;;;28.00;56.50;;;;;;5028475;28;20628;-72
2021/01/16 13:34:54;;;;;;;7.47;1.67;;;27.90;56.50;;;;;;5022832;28;20028;-74
2021/01/16 13:38:00;;;;;;;3.75;1.27;;;27.90;56.50;;;;;;5024233;28;20056;-72
2021/01/16 13:40:27;;;;;;;13.00;2.30;;;27.90;56.50;;;;;;5029611;28;20128;-74
2021/01/16 13:43:04;;;;;;;5.28;1.60;;;27.90;56.50;;;;;;5029711;28;20043;-76
2021/01/16 13:45:32;;;;;;;1.80;1.13;;;27.90;56.50;;;;;;5028216;28;20029;-76
2021/01/16 13:48:02;;;;;;;4.72;1.92;;;27.90;56.60;;;;;;5029268;28;20021;-73
2021/01/16 13:50:35;;;;;;;8.73;2.58;;;27.90;56.50;;;;;;5030548;28;20025;-75
2021/01/16 13:53:11;;;;;;;5.13;1.48;;;27.90;56.40;;;;;;5027855;28;20410;-72
2021/01/16 13:55:38;;;;;;;6.85;1.60;;;27.90;56.40;;;;;;5029843;28;20026;-72
2021/01/16 13:58:08;;;;;;;7.75;1.77;;;27.90;56.40;;;;;;5028965;28;20068;-73
2021/01/16 14:00:48;;;;;;;4.30;1.58;;;27.90;56.40;;;;;;5030743;28;20064;-76
2021/01/16 14:03:25;;;;;;;5.25;1.88;;;27.90;56.50;;;;;;5028235;28;20503;-75
2021/01/16 14:06:02;;;;;;;3.35;1.17;;;27.90;56.40;;;;;;5028178;28;20017;-75
2021/01/16 14:08:31;;;;;;;3.75;1.58;;;27.90;56.40;;;;;;5023700;28;20025;-75
2021/01/16 14:11:03;;;;;;;5.95;1.73;;;27.90;56.40;;;;;;5024900;28;20022;-75
2021/01/16 14:13:37;;;;;;;7.50;1.27;;;27.90;56.40;;;;;;5028017;28;20091;-74
2021/01/16 14:16:07;;;;;;;3.80;1.17;;;27.90;56.30;;;;;;5025757;28;20065;-76
2021/01/16 14:18:38;;;;;;;12.23;10.07;;;27.80;56.10;;;;;;5024670;28;20026;-75
2021/01/16 14:21:16;;;;;;;9.10;7.78;;;27.90;56.30;;;;;;5024000;28;20095;-75
2021/01/16 14:23:44;;;;;;;9.77;4.30;;;27.90;56.40;;;;;;5026076;28;20029;-76
2021/01/16 14:26:26;;;;;;;8.85;3.85;;;27.80;57.10;;;;;;5010103;28;20595;-75
2021/01/16 14:28:54;;;;;;;10.88;6.43;;;27.80;56.70;;;;;;5022645;28;20033;-75
2021/01/16 14:31:24;;;;;;;9.80;6.05;;;27.70;56.90;;;;;;5024015;28;20017;-75
2021/01/16 14:34:02;;;;;;;5.97;3.13;;;27.80;57.10;;;;;;5026373;28;20095;-75
2021/01/16 14:36:31;;;;;;;4.68;2.13;;;27.70;57.10;;;;;;5023231;28;20104;-75
2021/01/16 14:38:58;;;;;;;6.13;3.13;;;27.70;57.20;;;;;;5022665;28;20030;-71
2021/01/16 14:41:37;;;;;;;4.28;2.75;;;27.70;57.30;;;;;;5024710;28;20056;-72
2021/01/16 14:44:06;;;;;;;18.17;16.65;;;27.70;57.30;;;;;;5022238;28;20033;-74
2021/01/16 14:46:33;;;;;;;31.83;29.08;;;27.70;57.50;;;;;;5026777;28;20025;-77
2021/01/16 14:48:59;;;;;;;72.43;66.20;;;27.60;57.40;;;;;;5024022;28;20021;-73
2021/01/16 14:51:28;;;;;;;80.95;74.05;;;27.70;57.50;;;;;;5024744;28;20021;-78
2021/01/16 14:54:01;;;;;;;117.03;106.70;;;27.60;57.30;;;;;;5025020;28;20040;-77
2021/01/16 14:56:29;;;;;;;104.80;95.15;;;27.70;57.40;;;;;;5024828;28;20116;-76
2021/01/16 14:59:00;;;;;;;106.90;97.20;;;27.70;57.40;;;;;;5027053;28;20368;-76
2021/01/16 15:01:38;;;;;;;77.55;70.38;;;27.80;57.30;;;;;;5024650;28;20026;-76
2021/01/16 15:04:05;;;;;;;53.83;48.50;;;27.80;57.20;;;;;;5023909;28;20017;-75
2021/01/16 15:06:48;;;;;;;52.22;47.13;;;27.80;57.10;;;;;;5022952;28;20021;-76
2021/01/16 15:09:28;;;;;;;57.25;51.25;;;27.80;57.10;;;;;;5024070;28;20107;-77
2021/01/16 15:11:56;;;;;;;60.03;53.50;;;27.80;57.20;;;;;;5023620;28;20049;-78
2021/01/16 15:14:27;;;;;;;59.95;53.60;;;27.80;57.30;;;;;;5024762;28;20026;-77
2021/01/16 15:16:55;;;;;;;56.72;46.92;;;27.70;57.30;;;;;;5023229;28;20025;-75
2021/01/16 15:19:22;;;;;;;56.30;48.03;;;27.70;57.30;;;;;;5025921;28;20017;-73
2021/01/16 15:21:48;;;;;;;51.00;41.70;;;27.70;57.40;;;;;;5009141;28;20096;-73
2021/01/16 15:24:16;;;;;;;64.72;58.10;;;27.70;57.40;;;;;;5022218;28;20716;-79
2021/01/16 15:26:43;;;;;;;75.30;66.15;;;27.70;57.60;;;;;;5024830;28;20068;-77
2021/01/16 15:29:13;;;;;;;91.55;82.45;;;27.70;57.60;;;;;;5024630;28;20020;-78
2021/01/16 15:31:40;;;;;;;77.43;69.70;;;27.70;57.60;;;;;;5007248;28;20030;-76
2021/01/16 15:34:07;;;;;;;45.20;41.00;;;27.70;57.60;;;;;;5009416;28;20022;-84
2021/01/16 15:36:33;;;;;;;24.17;21.75;;;27.70;57.60;;;;;;5021520;28;20022;-80
2021/01/16 15:39:00;;;;;;;20.67;18.65;;;27.70;57.40;;;;;;5023295;28;20088;-74
2021/01/16 15:41:39;;;;;;;54.45;47.95;;;27.70;57.40;;;;;;5022721;28;20029;-78
2021/01/16 15:44:06;;;;;;;68.45;60.83;;;27.80;57.50;;;;;;5022112;28;20153;-80
2021/01/16 15:46:33;;;;;;;80.65;63.92;;;27.70;57.50;;;;;;5027422;28;20013;-79
2021/01/16 15:49:01;;;;;;;73.95;56.42;;;27.70;57.40;;;;;;5016449;28;20037;-80
2021/01/16 15:51:39;;;;;;;66.95;46.83;;;27.80;57.40;;;;;;5026808;28;20033;-79
2021/01/16 15:54:14;;;;;;;45.95;30.08;;;27.80;57.40;;;;;;4997091;28;20030;-77
2021/01/16 15:56:49;;;;;;;28.75;21.10;;;27.80;57.40;;;;;;5024006;28;20029;-82
2021/01/16 15:59:16;;;;;;;77.00;68.75;;;27.80;57.40;;;;;;5024938;28;20414;-81
2021/01/16 16:01:46;;;;;;;230.60;208.00;;;27.70;57.50;;;;;;5023874;28;21714;-78
2021/01/16 16:04:52;;;;;;;347.65;314.20;;;27.70;57.70;;;;;;5026028;28;20500;-80
2021/01/16 16:08:00;;;;;;;433.25;393.38;;;27.60;57.80;;;;;;5025374;28;20112;-79
2021/01/16 16:11:07;;;;;;;262.98;237.73;;;27.50;57.90;;;;;;5003946;28;20021;-81
2021/01/16 16:14:13;;;;;;;190.65;171.60;;;27.50;58.10;;;;;;5025775;28;20030;-80
2021/01/16 16:16:39;;;;;;;168.27;150.98;;;27.40;58.20;;;;;;5019564;28;20030;-80
2021/01/16 16:19:06;;;;;;;154.00;138.00;;;27.40;58.30;;;;;;5023818;28;20018;-79
2021/01/16 16:21:32;;;;;;;147.55;131.77;;;27.40;58.40;;;;;;5024664;28;20053;-82
2021/01/16 16:23:59;;;;;;;262.65;234.15;;;27.30;58.30;;;;;;5023113;28;20026;-81
2021/01/16 16:26:25;;;;;;;281.88;252.63;;;27.30;58.30;;;;;;5007080;28;20022;-78
2021/01/16 16:28:52;;;;;;;318.00;285.73;;;27.20;58.30;;;;;;5025067;28;20025;-81
2021/01/16 16:31:58;;;;;;;230.23;205.80;;;27.20;58.50;;;;;;5025106;28;20416;-80
2021/01/16 16:35:04;;;;;;;144.57;128.60;;;27.20;58.60;;;;;;5020903;28;20132;-83
2021/01/16 16:38:11;;;;;;;176.43;148.32;;;27.10;58.80;;;;;;5021105;28;20536;-78
2021/01/16 16:40:39;;;;;;;248.27;219.18;;;27.10;59.10;;;;;;5023212;28;20030;-79
2021/01/16 16:43:11;;;;;;;260.08;227.13;;;27.00;59.30;;;;;;5007748;28;20056;-81
2021/01/16 16:45:40;;;;;;;198.68;163.60;;;26.90;59.40;;;;;;5024607;28;20029;-82
2021/01/16 16:48:07;;;;;;;234.13;189.43;;;26.90;60.20;;;;;;5022518;28;20041;-79
2021/01/16 16:50:34;;;;;;;232.70;186.75;;;26.90;59.90;;;;;;5007419;28;20022;-79
2021/01/16 16:53:01;;;;;;;203.48;166.80;;;26.90;60.10;;;;;;5024050;28;21074;-80
2021/01/16 16:55:29;;;;;;;146.63;114.03;;;26.80;60.20;;;;;;5024623;28;20025;-80
2021/01/16 16:57:57;;;;;;;127.40;102.35;;;26.80;60.20;;;;;;5025744;28;20018;-85
2021/01/16 17:00:26;;;;;;;97.85;74.55;;;26.80;60.30;;;;;;5022377;28;20024;-82
2021/01/16 17:02:52;;;;;;;94.95;72.20;;;26.80;60.40;;;;;;5023174;28;20037;-80
2021/01/16 17:05:20;;;;;;;93.15;75.53;;;26.80;60.40;;;;;;5026154;28;20026;-82
2021/01/16 17:07:52;;;;;;;71.80;52.72;;;26.80;60.50;;;;;;5020967;28;20105;-82
2021/01/16 17:10:20;;;;;;;71.22;51.95;;;26.70;60.40;;;;;;5025791;28;20033;-82
2021/01/16 17:12:48;;;;;;;51.22;35.65;;;26.70;60.40;;;;;;5028088;28;20466;-83
2021/01/16 17:15:15;;;;;;;52.95;37.90;;;26.70;60.40;;;;;;5024196;28;20036;-79
2021/01/16 17:17:42;;;;;;;84.53;63.10;;;26.70;60.50;;;;;;5027569;28;20544;-83
2021/01/16 17:20:48;;;;;;;91.13;64.53;;;26.70;60.60;;;;;;5010958;28;20042;-80
2021/01/16 17:23:55;;;;;;;58.13;34.30;;;26.60;60.60;;;;;;5028526;28;20088;-80
2021/01/16 17:27:01;;;;;;;21.15;11.82;;;26.50;60.60;;;;;;5026067;28;20345;-81
2021/01/16 17:30:07;;;;;;;16.92;10.90;;;26.50;60.70;;;;;;5013300;28;20032;-79
2021/01/16 17:33:16;;;;;;;12.85;10.50;;;26.40;60.70;;;;;;5028436;28;20021;-82
2021/01/16 17:36:22;;;;;;;11.40;6.72;;;26.40;60.70;;;;;;5025833;28;20033;-77
2021/01/16 17:39:28;;;;;;;6.63;4.85;;;26.40;60.70;;;;;;5012620;28;20104;-79
2021/01/16 17:42:36;;;;;;;6.55;2.83;;;26.40;60.70;;;;;;5027710;28;20037;-78
2021/01/16 17:45:46;;;;;;;6.15;2.97;;;26.30;60.50;;;;;;5027682;28;20025;-78
2021/01/16 17:48:52;;;;;;;3.58;2.40;;;26.30;60.60;;;;;;5026911;28;20029;-83
2021/01/16 17:51:58;;;;;;;6.15;3.05;;;26.20;60.50;;;;;;5024306;28;20030;-80
2021/01/16 17:55:05;;;;;;;5.53;4.50;;;26.20;60.60;;;;;;5026652;28;20029;-81
2021/01/16 17:58:11;;;;;;;7.80;4.63;;;26.20;60.60;;;;;;5028933;28;20029;-81
2021/01/16 18:01:17;;;;;;;5.82;3.83;;;26.10;60.60;;;;;;5025016;28;20079;-80
2021/01/16 18:04:23;;;;;;;7.20;3.78;;;26.10;60.70;;;;;;5026920;28;20026;-80
2021/01/16 18:07:32;;;;;;;4.28;2.58;;;26.10;60.90;;;;;;5026016;28;20088;-82
2021/01/16 18:10:38;;;;;;;5.57;2.25;;;26.10;60.90;;;;;;5009215;28;20026;-79
2021/01/16 18:13:44;;;;;;;4.57;3.05;;;26.00;61.00;;;;;;5027299;28;20107;-82
2021/01/16 18:16:51;;;;;;;4.35;2.40;;;25.90;61.00;;;;;;5026572;28;20032;-79
2021/01/16 18:19:57;;;;;;;3.42;2.33;;;25.90;61.00;;;;;;5025346;28;20088;-78
2021/01/16 18:23:04;;;;;;;4.97;3.10;;;25.90;61.10;;;;;;5025428;28;20030;-80
2021/01/16 18:26:10;;;;;;;4.32;2.35;;;25.80;61.10;;;;;;5021813;28;20409;-79
2021/01/16 18:28:56;;;;;;;;;;;25.80;61.20;;;;;;5026599;28;20018;-78
2021/01/16 18:32:02;;;;;;;4.72;2.33;;;25.70;61.10;;;;;;5026952;28;20353;-80
2021/01/16 18:35:08;;;;;;;6.15;2.75;;;25.70;61.20;;;;;;5025080;28;20029;-78
2021/01/16 18:38:24;;;;;;;3.85;2.38;;;25.70;61.20;;;;;;5020187;28;20060;-77
2021/01/16 18:41:33;;;;;;;5.63;2.53;;;25.70;61.00;;;;;;5024962;28;20030;-78
2021/01/16 18:44:40;;;;;;;31.40;5.00;;;25.70;61.00;;;;;;5009143;28;20393;-75
2021/01/16 18:47:09;;;;;;;10.23;3.90;;;25.70;60.90;;;;;;5026363;28;20034;-73
2021/01/16 18:49:36;;;;;;;7.95;4.57;;;25.70;61.00;;;;;;5024667;28;20560;-74
2021/01/16 18:52:03;;;;;;;18.85;3.25;;;25.70;61.20;;;;;;5023899;28;20020;-73
2021/01/16 18:54:31;;;;;;;4.47;2.58;;;25.70;61.20;;;;;;5025861;28;20036;-74
2021/01/16 18:57:03;;;;;;;7.55;2.58;;;25.70;61.20;;;;;;5022661;28;20030;-74
2021/01/16 18:59:30;;;;;;;7.10;3.33;;;25.70;61.20;;;;;;5025481;28;20461;-73
2021/01/16 19:01:57;;;;;;;5.07;2.42;;;25.60;61.20;;;;;;5024024;28;20168;-73
2021/01/16 19:11:11;;;;;;;12.13;9.57;;;25.60;61.20;;;;;;5012481;28;20447;-73
2021/01/16 19:13:39;;;;;;;15.00;12.43;;;25.60;61.10;;;;;;5023061;28;20104;-72
2021/01/16 19:16:06;;;;;;;10.55;9.65;;;25.50;61.20;;;;;;5025679;28;20029;-72
2021/01/16 19:18:34;;;;;;;12.13;7.95;;;25.50;61.00;;;;;;5021275;28;20118;-73
2021/01/16 19:21:02;;;;;;;8.82;5.88;;;25.50;61.00;;;;;;5023720;28;20459;-72
2021/01/16 19:23:29;;;;;;;8.15;4.10;;;25.50;61.00;;;;;;5023583;28;20028;-73
2021/01/16 19:26:37;;;;;;;6.18;3.45;;;25.40;60.90;;;;;;5021384;28;20476;-73
2021/01/16 19:29:45;;;;;;;8.05;4.40;;;25.40;60.80;;;;;;5026126;28;20029;-72
2021/01/16 19:32:51;;;;;;;7.97;4.50;;;25.40;60.50;;;;;;5022839;28;20033;-73
2021/01/16 19:35:58;;;;;;;6.22;3.88;;;25.40;60.20;;;;;;5025907;28;20481;-73
2021/01/16 19:38:25;;;;;;;9.57;4.78;;;25.40;60.00;;;;;;5023487;28;20087;-74
2021/01/16 19:40:51;;;;;;;4.65;3.10;;;25.40;59.90;;;;;;5023984;28;20018;-74
2021/01/16 19:43:58;;;;;;;5.60;4.10;;;25.40;59.80;;;;;;5023795;28;20039;-74
2021/01/16 19:46:44;;;;;;;7.95;4.70;;;25.40;59.80;;;;;;5023636;28;20018;-74
2021/01/16 19:49:13;;;;;;;7.07;4.22;;;25.30;59.80;;;;;;5023745;28;20034;-74
2021/01/16 19:51:46;;;;;;;5.45;4.10;;;25.30;59.70;;;;;;5024896;28;20393;-74
2021/01/16 19:54:14;;;;;;;9.60;4.45;;;25.30;59.70;;;;;;5022800;28;20034;-73
2021/01/16 19:56:42;;;;;;;6.25;3.83;;;25.30;59.60;;;;;;5007892;28;20028;-74
2021/01/16 19:59:10;;;;;;;8.38;3.30;;;25.30;59.60;;;;;;5023906;28;20033;-73
2021/01/16 20:01:39;;;;;;;6.32;3.05;;;25.30;59.60;;;;;;5020901;28;20055;-74
2021/01/16 20:04:07;;;;;;;7.72;3.17;;;25.20;59.60;;;;;;5024955;28;20025;-73
2021/01/16 20:06:36;;;;;;;5.07;3.40;;;25.20;59.60;;;;;;5022189;28;20075;-74
2021/01/16 20:09:08;;;;;;;8.73;4.00;;;25.20;59.70;;;;;;5024067;28;20079;-73
2021/01/16 20:11:40;;;;;;;6.47;3.05;;;25.10;59.70;;;;;;5021162;28;20520;-73
2021/01/16 20:14:10;;;;;;;9.02;3.70;;;25.10;59.80;;;;;;5022969;28;20542;-74
2021/01/16 20:16:48;;;;;;;10.02;3.13;;;25.10;59.80;;;;;;5007241;28;20080;-74
2021/01/16 20:19:16;;;;;;;6.45;2.90;;;25.10;59.90;;;;;;5020239;28;20037;-74
2021/01/16 20:21:47;;;;;;;5.10;3.42;;;25.10;60.00;;;;;;5021333;28;20108;-73
2021/01/16 20:24:15;;;;;;;8.88;3.72;;;25.00;59.90;;;;;;5020288;28;20039;-73
2021/01/16 20:26:42;;;;;;;7.53;4.38;;;25.00;60.00;;;;;;5024307;28;20088;-73